createdAt,value
2018-08-10T00:00:59.719Z,17.77
2018-08-10T00:03:28.987Z,17.56
2018-08-10T00:05:58.215Z,17.48
2018-08-10T00:08:27.450Z,17.36
2018-08-10T00:10:57.915Z,17.52
2018-08-10T00:13:27.174Z,17.45
2018-08-10T00:15:56.439Z,17.52
2018-08-10T00:18:25.647Z,17.63
2018-08-10T00:20:54.887Z,17.73
2018-08-10T00:23:24.150Z,17.70
2018-08-10T00:25:53.675Z,17.54
2018-08-10T00:28:22.963Z,17.61
2018-08-10T00:31:07.324Z,17.52
2018-08-10T00:33:36.593Z,17.35
2018-08-10T00:36:05.876Z,17.40
2018-08-10T00:38:35.088Z,17.41
2018-08-10T00:41:05.624Z,17.53
2018-08-10T00:43:34.847Z,17.65
2018-08-10T00:46:04.092Z,17.53
2018-08-10T00:48:33.344Z,17.59
2018-08-10T00:51:02.576Z,17.63
2018-08-10T00:53:31.791Z,17.60
2018-08-10T00:56:01.037Z,17.69
2018-08-10T00:58:30.251Z,17.61
2018-08-10T01:00:59.506Z,17.50
2018-08-10T01:03:28.819Z,17.69
2018-08-10T01:05:58.088Z,17.46
2018-08-10T01:08:27.358Z,17.66
2018-08-10T01:10:56.638Z,17.57
2018-08-10T01:13:25.982Z,17.52
2018-08-10T01:15:55.247Z,17.52
2018-08-10T01:18:24.526Z,17.45
2018-08-10T01:20:53.822Z,17.58
2018-08-10T01:23:23.120Z,17.60
2018-08-10T01:25:52.403Z,17.45
2018-08-10T01:28:21.760Z,17.48
2018-08-10T01:30:50.991Z,17.38
2018-08-10T01:33:20.289Z,17.37
2018-08-10T01:35:49.589Z,17.44
2018-08-10T01:38:18.848Z,17.38
2018-08-10T01:40:48.128Z,17.56
2018-08-10T01:43:17.439Z,17.48
2018-08-10T01:45:46.723Z,17.49
2018-08-10T01:48:16.065Z,17.38
2018-08-10T01:50:45.424Z,17.48
2018-08-10T01:53:14.714Z,17.40
2018-08-10T01:55:44.005Z,17.64
2018-08-10T01:58:13.266Z,17.46
2018-08-10T02:00:42.566Z,17.32
2018-08-10T02:03:11.832Z,17.47
2018-08-10T02:05:41.103Z,17.38
2018-08-10T02:08:10.458Z,17.41
2018-08-10T02:10:39.754Z,17.36
2018-08-10T02:13:09.053Z,17.61
2018-08-10T02:15:38.414Z,17.51
2018-08-10T02:18:07.687Z,17.41
2018-08-10T02:20:36.951Z,17.25
2018-08-10T02:23:06.329Z,17.28
2018-08-10T02:25:35.602Z,17.31
2018-08-10T02:28:04.994Z,17.28
2018-08-10T02:30:34.281Z,17.24
2018-08-10T02:33:03.829Z,17.29
2018-08-10T02:35:33.140Z,17.24
2018-08-10T02:38:02.418Z,17.39
2018-08-10T02:40:32.111Z,17.12
2018-08-10T02:43:01.404Z,17.01
2018-08-10T02:45:30.718Z,17.13
2018-08-10T02:47:59.992Z,17.12
2018-08-10T02:50:29.260Z,17.24
2018-08-10T02:52:58.515Z,17.12
2018-08-10T02:55:27.786Z,17.14
2018-08-10T02:57:57.017Z,17.08
2018-08-10T03:00:26.279Z,17.04
2018-08-10T03:02:55.521Z,17.21
2018-08-10T03:05:24.808Z,17.33
2018-08-10T03:07:54.050Z,17.30
2018-08-10T03:10:23.310Z,17.38
2018-08-10T03:12:52.558Z,17.27
2018-08-10T03:15:22.015Z,17.33
2018-08-10T03:17:51.325Z,17.27
2018-08-10T03:20:20.565Z,17.23
2018-08-10T03:22:49.807Z,17.21
2018-08-10T03:25:19.076Z,17.14
2018-08-10T03:27:48.324Z,17.17
2018-08-10T03:30:17.616Z,17.16
2018-08-10T03:32:46.876Z,17.19
2018-08-10T03:35:16.103Z,17.12
2018-08-10T03:37:45.375Z,17.24
2018-08-10T03:40:15.865Z,17.18
2018-08-10T03:42:45.111Z,17.23
2018-08-10T03:45:14.339Z,17.25
2018-08-10T03:47:43.566Z,17.07
2018-08-10T03:50:14.051Z,17.27
2018-08-10T03:52:44.816Z,17.25
2018-08-10T03:55:14.116Z,17.29
2018-08-10T03:57:43.359Z,17.14
2018-08-10T04:00:14.049Z,17.00
2018-08-10T04:02:43.637Z,17.11
2018-08-10T04:05:13.419Z,17.23
2018-08-10T04:07:42.959Z,17.30
2018-08-10T04:10:12.194Z,17.42
2018-08-10T04:13:12.182Z,17.48
2018-08-10T04:15:41.654Z,17.47
2018-08-10T04:18:10.930Z,17.34
2018-08-10T04:20:40.159Z,17.27
2018-08-10T04:23:09.414Z,17.51
2018-08-10T04:25:38.655Z,17.35
2018-08-10T04:28:07.906Z,17.24
2018-08-10T04:30:37.211Z,17.23
2018-08-10T04:33:06.872Z,17.31
2018-08-10T04:35:36.387Z,17.32
2018-08-10T04:38:05.707Z,17.40
2018-08-10T04:40:34.948Z,17.50
2018-08-10T04:43:04.228Z,17.40
2018-08-10T04:45:33.472Z,17.52
2018-08-10T04:48:03.839Z,17.55
2018-08-10T04:50:33.639Z,17.55
2018-08-10T04:53:02.887Z,17.73
2018-08-10T04:55:32.232Z,17.68
2018-08-10T04:58:01.622Z,17.64
2018-08-10T05:00:30.879Z,17.62
2018-08-10T05:03:00.132Z,17.50
2018-08-10T05:05:29.426Z,17.39
2018-08-10T05:07:58.745Z,17.57
2018-08-10T05:10:28.183Z,17.41
2018-08-10T05:12:57.491Z,17.50
2018-08-10T05:15:26.740Z,17.57
2018-08-10T05:17:56.030Z,17.48
2018-08-10T05:20:25.245Z,17.54
2018-08-10T05:22:54.520Z,17.32
2018-08-10T05:25:23.746Z,17.24
2018-08-10T05:28:37.504Z,17.20
2018-08-10T05:31:06.823Z,17.13
2018-08-10T05:33:36.206Z,17.12
2018-08-10T05:36:05.448Z,17.12
2018-08-10T05:38:34.812Z,17.12
2018-08-10T05:41:04.134Z,17.04
2018-08-10T05:43:33.394Z,17.00
2018-08-10T05:46:02.673Z,16.70
2018-08-10T05:48:37.070Z,16.45
2018-08-10T05:51:07.085Z,16.20
2018-08-10T05:53:36.391Z,15.94
2018-08-10T05:56:05.693Z,15.96
2018-08-10T05:58:34.957Z,15.89
2018-08-10T06:01:04.424Z,15.81
2018-08-10T06:03:33.706Z,15.85
2018-08-10T06:06:02.956Z,15.86
2018-08-10T06:08:32.201Z,15.89
2018-08-10T06:11:01.501Z,15.85
2018-08-10T06:13:31.029Z,15.89
2018-08-10T06:16:00.997Z,15.94
2018-08-10T06:18:30.261Z,15.94
2018-08-10T06:20:59.596Z,15.90
2018-08-10T06:23:29.059Z,15.93
2018-08-10T06:25:58.347Z,16.00
2018-08-10T06:28:27.680Z,15.97
2018-08-10T06:30:56.940Z,15.94
2018-08-10T06:33:26.211Z,15.97
2018-08-10T06:35:55.461Z,15.97
2018-08-10T06:38:24.749Z,15.94
2018-08-10T06:40:54.087Z,16.06
2018-08-10T06:43:23.348Z,15.87
2018-08-10T06:45:52.625Z,15.93
2018-08-10T06:48:21.893Z,15.92
2018-08-10T06:50:51.203Z,15.91
2018-08-10T06:53:20.653Z,15.92
2018-08-10T06:55:50.079Z,15.87
2018-08-10T06:58:19.302Z,15.79
2018-08-10T07:00:48.610Z,15.77
2018-08-10T07:03:17.929Z,15.55
2018-08-10T07:05:47.243Z,15.39
2018-08-10T07:08:16.522Z,15.32
2018-08-10T07:10:45.923Z,15.23
2018-08-10T07:13:15.340Z,15.24
2018-08-10T07:15:44.544Z,15.24
2018-08-10T07:18:13.815Z,15.29
2018-08-10T07:20:43.072Z,15.23
2018-08-10T07:23:12.432Z,15.08
2018-08-10T07:25:41.738Z,14.93
2018-08-10T07:28:11.112Z,15.03
2018-08-10T07:30:40.387Z,14.97
2018-08-10T07:33:09.687Z,15.00
2018-08-10T07:35:38.978Z,14.89
2018-08-10T07:38:08.269Z,15.02
2018-08-10T07:40:38.780Z,14.97
2018-08-10T07:43:08.055Z,14.81
2018-08-10T07:45:37.394Z,14.88
2018-08-10T07:48:06.695Z,14.93
2018-08-10T07:50:36.006Z,14.93
2018-08-10T07:53:05.352Z,15.05
2018-08-10T07:55:34.673Z,15.00
2018-08-10T07:58:03.955Z,15.00
2018-08-10T08:00:33.254Z,15.17
2018-08-10T08:03:02.552Z,15.22
2018-08-10T08:05:31.767Z,15.30
2018-08-10T08:08:00.997Z,15.31
2018-08-10T08:10:30.398Z,15.20
2018-08-10T08:12:59.705Z,15.20
2018-08-10T08:15:28.959Z,15.38
2018-08-10T08:17:58.237Z,15.54
2018-08-10T08:20:27.516Z,15.72
2018-08-10T08:23:05.367Z,15.78
2018-08-10T08:25:34.655Z,15.81
2018-08-10T08:28:03.933Z,15.86
2018-08-10T08:30:33.199Z,15.53
2018-08-10T08:33:02.478Z,15.42
2018-08-10T08:35:31.794Z,15.30
2018-08-10T08:40:20.508Z,15.23
2018-08-10T08:42:51.024Z,15.53
2018-08-10T08:46:23.032Z,15.56
2018-08-10T08:48:52.961Z,15.85
2018-08-10T08:51:24.477Z,15.67
2018-08-10T08:54:11.435Z,15.42
2018-08-10T08:56:44.209Z,15.39
2018-08-10T08:59:13.499Z,15.35
2018-08-10T09:01:42.858Z,15.38
2018-08-10T09:04:29.447Z,15.53
2018-08-10T09:06:58.725Z,15.71
2018-08-10T09:09:36.665Z,15.56
2018-08-10T09:12:06.146Z,15.65
2018-08-10T09:14:45.896Z,15.81
2018-08-10T09:17:15.255Z,15.96
2018-08-10T09:19:44.565Z,15.89
2018-08-10T09:22:14.191Z,15.72
2018-08-10T09:24:43.724Z,15.83
2018-08-10T09:27:13.103Z,15.97
2018-08-10T09:29:42.374Z,16.09
2018-08-10T09:32:11.655Z,16.16
2018-08-10T09:34:41.355Z,16.17
2018-08-10T09:37:11.147Z,16.11
2018-08-10T09:39:40.588Z,16.11
2018-08-10T09:42:10.001Z,15.96
2018-08-10T09:44:39.324Z,15.87
2018-08-10T09:47:10.067Z,15.65
2018-08-10T09:49:45.532Z,15.43
2018-08-10T09:52:14.895Z,15.49
2018-08-10T09:55:24.707Z,15.62
2018-08-10T09:57:55.299Z,15.75
2018-08-10T10:00:29.790Z,15.76
2018-08-10T10:03:04.307Z,15.73
2018-08-10T10:05:33.620Z,15.53
2018-08-10T10:08:02.925Z,15.54
2018-08-10T10:10:32.175Z,15.50
2018-08-10T10:13:01.448Z,15.56
2018-08-10T10:15:30.834Z,15.63
2018-08-10T10:18:00.212Z,15.63
2018-08-10T10:20:29.567Z,15.39
2018-08-10T10:22:58.895Z,15.33
2018-08-10T10:25:28.228Z,15.31
2018-08-10T10:27:57.584Z,15.36
2018-08-10T10:30:26.866Z,15.58
2018-08-10T10:32:56.164Z,15.52
2018-08-10T10:35:25.432Z,16.20
2018-08-10T10:37:54.762Z,16.61
2018-08-10T10:40:24.065Z,16.44
2018-08-10T10:42:53.425Z,16.57
2018-08-10T10:45:22.727Z,16.58
2018-08-10T10:47:53.312Z,16.64
2018-08-10T10:50:22.571Z,16.88
2018-08-10T10:52:51.897Z,16.91
2018-08-10T10:55:21.226Z,16.63
2018-08-10T10:57:50.459Z,16.87
2018-08-10T11:00:20.971Z,17.29
2018-08-10T11:02:50.502Z,17.91
2018-08-10T11:05:20.077Z,17.70
2018-08-10T11:07:49.397Z,18.24
2018-08-10T11:10:19.947Z,18.85
2018-08-10T11:12:49.228Z,19.14
2018-08-10T11:15:18.541Z,19.77
2018-08-10T11:17:47.861Z,19.71
2018-08-10T11:20:17.178Z,19.69
2018-08-10T11:22:46.482Z,18.97
2018-08-10T11:25:16.050Z,18.08
2018-08-10T11:27:45.714Z,17.06
2018-08-10T11:30:15.047Z,16.83
2018-08-10T11:32:44.283Z,16.62
2018-08-10T11:35:13.595Z,16.61
2018-08-10T11:37:43.052Z,16.92
2018-08-10T11:40:14.092Z,16.83
2018-08-10T11:42:43.882Z,16.84
2018-08-10T11:45:15.219Z,16.79
2018-08-10T11:47:44.585Z,17.12
2018-08-10T11:50:13.864Z,17.12
2018-08-10T11:52:43.101Z,17.41
2018-08-10T11:55:14.183Z,16.70
2018-08-10T11:57:44.080Z,16.99
2018-08-10T12:00:14.777Z,17.30
2018-08-10T12:02:44.330Z,17.14
2018-08-10T12:05:14.286Z,17.07
2018-08-10T12:07:43.563Z,17.00
2018-08-10T12:10:12.833Z,17.10
2018-08-10T12:12:42.181Z,16.86
2018-08-10T12:15:13.096Z,16.74
2018-08-10T12:17:42.443Z,16.76
2018-08-10T12:20:11.783Z,16.86
2018-08-10T12:22:41.807Z,16.94
2018-08-10T12:25:11.122Z,16.76
2018-08-10T12:27:40.390Z,16.59
2018-08-10T12:30:12.019Z,16.73
2018-08-10T12:32:41.248Z,16.80
2018-08-10T12:35:10.780Z,16.86
2018-08-10T12:37:40.047Z,16.51
2018-08-10T12:40:09.641Z,16.69
2018-08-10T12:42:39.458Z,16.53
2018-08-10T12:45:08.803Z,16.30
2018-08-10T12:47:38.482Z,16.00
2018-08-10T12:50:08.553Z,16.03
2018-08-10T12:52:37.778Z,16.39
2018-08-10T12:55:07.035Z,17.07
2018-08-10T12:57:36.334Z,17.28
2018-08-10T13:00:09.290Z,17.53
2018-08-10T13:02:38.614Z,17.38
2018-08-10T13:05:08.576Z,17.33
2018-08-10T13:07:37.955Z,17.33
2018-08-10T13:10:10.396Z,17.05
2018-08-10T13:12:39.739Z,16.96
2018-08-10T13:15:11.277Z,16.84
2018-08-10T13:17:40.671Z,16.81
2018-08-10T13:20:12.205Z,16.84
2018-08-10T13:22:41.468Z,17.08
2018-08-10T13:25:11.535Z,17.21
2018-08-10T13:27:40.878Z,17.17
2018-08-10T13:30:11.714Z,16.83
2018-08-10T13:32:41.024Z,16.99
2018-08-10T13:35:10.327Z,16.39
2018-08-10T13:37:39.576Z,16.34
2018-08-10T13:40:08.879Z,16.56
2018-08-10T13:42:38.133Z,16.90
2018-08-10T13:45:10.131Z,17.43
2018-08-10T13:47:39.427Z,18.15
2018-08-10T13:50:11.378Z,17.95
2018-08-10T13:52:41.198Z,18.39
2018-08-10T13:55:13.974Z,18.54
2018-08-10T13:57:43.262Z,18.56
2018-08-10T14:00:27.249Z,18.72
2018-08-10T14:02:56.624Z,18.79
2018-08-10T14:05:25.948Z,18.80
2018-08-10T14:07:55.207Z,18.46
2018-08-10T14:10:24.596Z,18.51
2018-08-10T14:12:53.855Z,18.19
2018-08-10T14:15:23.152Z,17.82
2018-08-10T14:17:52.537Z,17.81
2018-08-10T14:20:21.843Z,17.78
2018-08-10T14:22:51.138Z,17.83
2018-08-10T14:25:20.468Z,17.80
2018-08-10T14:27:49.710Z,17.94
2018-08-10T14:30:19.002Z,18.23
2018-08-10T14:32:48.299Z,18.51
2018-08-10T14:35:18.260Z,18.23
2018-08-10T14:37:47.551Z,17.77
2018-08-10T14:40:16.835Z,18.24
2018-08-10T14:42:46.124Z,18.65
2018-08-10T14:45:16.401Z,18.09
2018-08-10T14:47:45.735Z,17.71
2018-08-10T14:50:15.610Z,17.75
2018-08-10T14:52:44.872Z,17.40
2018-08-10T14:55:15.607Z,17.21
2018-08-10T14:57:44.923Z,17.61
2018-08-10T15:00:19.473Z,18.18
2018-08-10T15:02:48.950Z,18.89
2018-08-10T15:05:18.499Z,19.20
2018-08-10T15:07:47.813Z,19.18
2018-08-10T15:10:17.734Z,19.51
2018-08-10T15:12:47.551Z,18.87
2018-08-10T15:15:18.003Z,19.04
2018-08-10T15:17:48.325Z,18.96
2018-08-10T15:20:20.507Z,18.62
2018-08-10T15:22:49.900Z,18.43
2018-08-10T15:25:19.153Z,18.83
2018-08-10T15:27:48.498Z,18.94
2018-08-10T15:30:18.856Z,19.02
2018-08-10T15:32:48.211Z,19.01
2018-08-10T15:35:17.951Z,18.78
2018-08-10T15:37:47.277Z,18.83
2018-08-10T15:40:19.206Z,18.86
2018-08-10T15:42:48.545Z,18.81
2018-08-10T15:45:18.776Z,19.01
2018-08-10T15:47:48.227Z,18.97
2018-08-10T15:50:18.476Z,18.70
2018-08-10T15:52:47.792Z,18.81
2018-08-10T15:55:17.083Z,19.10
2018-08-10T15:57:46.806Z,18.94
2018-08-10T16:00:20.035Z,18.82
2018-08-10T16:02:49.503Z,19.03
2018-08-10T16:05:18.756Z,19.16
2018-08-10T16:07:48.088Z,18.69
2018-08-10T16:10:17.441Z,18.67
2018-08-10T16:12:46.759Z,18.33
2018-08-10T16:15:18.318Z,18.16
2018-08-10T16:17:47.784Z,18.35
2018-08-10T16:20:22.406Z,18.37
2018-08-10T16:22:51.932Z,18.54
2018-08-10T16:25:21.230Z,18.44
2018-08-10T16:27:50.590Z,18.08
2018-08-10T16:30:19.907Z,18.06
2018-08-10T16:32:49.250Z,17.73
2018-08-10T16:35:18.524Z,17.63
2018-08-10T16:37:48.170Z,17.65
2018-08-10T16:40:18.503Z,17.58
2018-08-10T16:42:47.850Z,17.67
2018-08-10T16:45:17.192Z,17.72
2018-08-10T16:47:46.773Z,17.70
2018-08-10T16:50:17.678Z,17.79
2018-08-10T16:52:47.445Z,17.81
2018-08-10T16:55:18.147Z,17.72
2018-08-10T16:57:47.976Z,17.64
2018-08-10T17:00:19.113Z,17.87
2018-08-10T17:02:48.756Z,18.24
2018-08-10T17:05:18.165Z,18.47
2018-08-10T17:07:47.519Z,18.34
2018-08-10T17:10:16.831Z,18.46
2018-08-10T17:12:46.519Z,18.12
2018-08-10T17:15:17.835Z,17.59
2018-08-10T17:17:47.824Z,17.40
2018-08-10T17:20:17.666Z,17.23
2018-08-10T17:22:47.092Z,17.19
2018-08-10T17:25:21.088Z,17.07
2018-08-10T17:27:50.418Z,17.01
2018-08-10T17:30:20.478Z,17.24
2018-08-10T17:32:49.731Z,17.21
2018-08-10T17:35:19.011Z,17.03
2018-08-10T17:37:48.411Z,17.23
2018-08-10T17:40:17.674Z,17.03
2018-08-10T17:42:46.954Z,16.87
2018-08-10T17:45:17.363Z,16.97
2018-08-10T17:47:46.820Z,16.93
2018-08-10T17:50:18.819Z,17.02
2018-08-10T17:52:49.520Z,16.89
2018-08-10T17:55:19.234Z,16.92
2018-08-10T17:57:48.694Z,17.01
2018-08-10T18:00:20.269Z,16.97
2018-08-10T18:02:50.201Z,16.88
2018-08-10T18:05:19.623Z,17.00
2018-08-10T18:07:48.908Z,16.84
2018-08-10T18:10:19.319Z,16.81
2018-08-10T18:12:48.630Z,16.60
2018-08-10T18:15:19.615Z,16.83
2018-08-10T18:17:49.189Z,17.15
2018-08-10T18:20:20.131Z,16.97
2018-08-10T18:22:50.775Z,16.90
2018-08-10T18:25:21.894Z,16.87
2018-08-10T18:27:51.150Z,16.67
2018-08-10T18:30:23.134Z,16.68
2018-08-10T18:32:52.466Z,16.74
2018-08-10T18:35:21.817Z,16.56
2018-08-10T18:37:51.695Z,16.94
2018-08-10T18:40:21.968Z,16.67
2018-08-10T18:42:51.524Z,16.32
2018-08-10T18:45:21.911Z,16.06
2018-08-10T18:47:51.152Z,16.15
2018-08-10T18:50:20.893Z,15.94
2018-08-10T18:52:50.126Z,15.88
2018-08-10T18:55:21.423Z,15.99
2018-08-10T18:57:51.260Z,16.02
2018-08-10T19:00:22.752Z,15.82
2018-08-10T19:02:52.021Z,15.73
2018-08-10T19:05:21.323Z,15.65
2018-08-10T19:07:50.776Z,15.55
2018-08-10T19:10:22.371Z,15.54
2018-08-10T19:12:51.732Z,15.30
2018-08-10T19:15:20.975Z,15.27
2018-08-10T19:17:50.327Z,15.31
2018-08-10T19:20:20.829Z,15.39
2018-08-10T19:22:50.115Z,15.05
2018-08-10T19:25:19.487Z,14.85
2018-08-10T19:27:48.826Z,14.88
2018-08-10T19:30:20.565Z,14.77
2018-08-10T19:32:49.962Z,14.66
2018-08-10T19:35:19.569Z,14.63
2018-08-10T19:37:48.963Z,14.59
2018-08-10T19:40:19.229Z,14.51
2018-08-10T19:42:48.530Z,14.42
2018-08-10T19:45:18.389Z,14.43
2018-08-10T19:47:47.678Z,14.42
2018-08-10T19:50:18.065Z,14.38
2018-08-10T19:52:47.320Z,14.52
2018-08-10T19:55:16.622Z,14.59
2018-08-10T19:57:46.410Z,14.67
2018-08-10T20:00:22.379Z,14.43
2018-08-10T20:02:51.953Z,14.42
2018-08-10T20:05:21.213Z,14.36
2018-08-10T20:07:50.452Z,14.35
2018-08-10T20:10:19.738Z,14.31
2018-08-10T20:17:46.665Z,14.21
2018-08-10T20:20:17.944Z,14.18
2018-08-10T20:22:47.647Z,14.14
2018-08-10T20:25:17.235Z,14.11
2018-08-10T20:28:01.187Z,14.40
2018-08-10T20:30:31.551Z,14.15
2018-08-10T20:33:00.938Z,14.08
2018-08-10T20:35:30.203Z,14.06
2018-08-10T20:37:59.597Z,14.13
2018-08-10T20:40:29.058Z,14.14
2018-08-10T20:42:58.428Z,14.13
2018-08-10T20:45:27.753Z,14.15
2018-08-10T20:47:57.006Z,14.19
2018-08-10T20:50:26.389Z,14.56
2018-08-10T20:52:55.597Z,14.45
2018-08-10T20:55:25.008Z,14.15
2018-08-10T20:57:54.276Z,14.14
2018-08-10T21:00:23.552Z,14.03
2018-08-10T21:02:52.804Z,13.91
2018-08-10T21:05:22.072Z,13.78
2018-08-10T21:07:51.833Z,13.86
2018-08-10T21:10:21.158Z,13.53
2018-08-10T21:12:50.407Z,13.45
2018-08-10T21:15:19.681Z,13.34
2018-08-10T21:17:48.909Z,13.27
2018-08-10T21:20:18.691Z,13.23
2018-08-10T21:22:48.043Z,13.22
2018-08-10T21:25:17.283Z,13.15
2018-08-10T21:27:46.560Z,13.13
2018-08-10T21:30:18.171Z,13.13
2018-08-10T21:32:47.936Z,13.19
2018-08-10T21:35:17.175Z,13.16
2018-08-10T21:37:46.487Z,13.23
2018-08-10T21:40:15.707Z,13.29
2018-08-10T21:47:42.829Z,13.51
2018-08-10T21:50:13.519Z,13.48
2018-08-10T21:52:44.030Z,13.46
2018-08-10T21:55:13.449Z,13.43
2018-08-10T21:57:42.830Z,13.53
2018-08-10T22:00:21.702Z,13.53
2018-08-10T22:02:50.927Z,13.47
2018-08-10T22:05:20.179Z,13.33
2018-08-10T22:07:49.428Z,13.22
2018-08-10T22:10:18.699Z,13.28
2018-08-10T22:12:48.292Z,13.28
2018-08-10T22:15:23.180Z,13.35
2018-08-10T22:17:57.667Z,13.25
2018-08-10T22:20:26.942Z,13.12
2018-08-10T22:22:56.238Z,13.03
2018-08-10T22:25:26.192Z,12.99
2018-08-10T22:27:55.421Z,13.00
2018-08-10T22:30:24.671Z,12.91
2018-08-10T22:32:53.912Z,13.00
2018-08-10T22:35:23.164Z,12.91
2018-08-10T22:37:52.420Z,12.84
2018-08-10T22:40:21.709Z,12.87
2018-08-10T22:42:50.983Z,12.81
2018-08-10T22:45:20.218Z,12.87
2018-08-10T22:47:49.515Z,12.89
2018-08-10T22:50:18.773Z,12.93
2018-08-10T22:52:48.031Z,13.18
2018-08-10T22:55:17.330Z,13.02
2018-08-10T22:57:46.563Z,12.97
2018-08-10T23:00:15.803Z,12.88
2018-08-10T23:02:45.063Z,13.06
2018-08-10T23:05:14.301Z,13.14
2018-08-10T23:07:43.635Z,13.30
2018-08-10T23:10:14.158Z,12.92
2018-08-10T23:12:43.889Z,12.80
2018-08-10T23:15:13.306Z,12.73
2018-08-10T23:17:42.718Z,13.04
2018-08-10T23:20:13.870Z,12.91
2018-08-10T23:22:43.138Z,12.76
2018-08-10T23:25:13.978Z,12.86
2018-08-10T23:27:44.347Z,12.78
2018-08-10T23:30:15.651Z,12.81
2018-08-10T23:32:45.615Z,12.76
2018-08-10T23:35:14.969Z,12.84
2018-08-10T23:37:44.218Z,12.74
2018-08-10T23:40:15.391Z,12.83
2018-08-10T23:42:45.694Z,12.70
2018-08-10T23:45:15.574Z,12.76
2018-08-10T23:47:45.149Z,12.75
2018-08-10T23:50:15.666Z,12.66
2018-08-10T23:52:45.396Z,12.64
2018-08-10T23:55:19.048Z,12.47
2018-08-10T23:57:49.320Z,12.37
